Time;durP1;ratioP1;P1;durP2;ratioP2;P2;SDS_P1;SDS_P2;PMS_P1;PMS_P2;Temp;Humidity;BMP_temperature;BMP_pressure;BME280_temperature;BME280_humidity;BME280_pressure;Samples;Min_cycle;Max_cycle;Signal;HPM_P1;HPM_P2
2023/05/17 00:02:08;;;;;;;16.83;16.20;;;20.50;62.30;;;;;;5036536;28;20477;-61
2023/05/17 00:04:35;;;;;;;16.50;15.90;;;20.50;62.30;;;;;;5031869;28;20532;-60
2023/05/17 00:07:02;;;;;;;16.40;15.80;;;20.50;62.50;;;;;;5031798;28;20501;-59
2023/05/17 00:09:29;;;;;;;16.70;16.10;;;20.50;62.40;;;;;;5031930;28;20528;-61
2023/05/17 00:11:57;;;;;;;18.63;17.93;;;20.50;62.40;;;;;;5044893;28;20958;-61
2023/05/17 00:14:24;;;;;;;17.17;16.57;;;20.40;62.40;;;;;;5051796;28;20531;-58
2023/05/17 00:16:51;;;;;;;16.00;15.40;;;20.50;62.60;;;;;;5051552;28;20479;-59
2023/05/17 00:19:18;;;;;;;17.23;16.63;;;20.40;62.50;;;;;;5051326;28;20459;-61
2023/05/17 00:21:45;;;;;;;17.67;16.97;;;20.40;62.50;;;;;;5050087;28;20531;-58
2023/05/17 00:24:12;;;;;;;16.50;15.90;;;20.40;62.50;;;;;;5051627;28;20527;-61
2023/05/17 00:26:38;;;;;;;17.63;16.73;;;20.40;62.50;;;;;;5051338;28;20570;-61
2023/05/17 00:29:07;;;;;;;17.00;16.40;;;20.40;62.60;;;;;;5051550;28;20491;-60
2023/05/17 00:31:34;;;;;;;17.00;16.40;;;20.40;62.60;;;;;;5041337;28;20449;-59
2023/05/17 00:34:00;;;;;;;17.57;16.87;;;20.40;62.70;;;;;;5031515;28;20482;-60
2023/05/17 00:36:27;;;;;;;16.60;15.90;;;20.40;62.70;;;;;;5031500;28;20477;-57
2023/05/17 00:38:54;;;;;;;16.40;15.80;;;20.40;62.80;;;;;;5031321;28;20579;-57
2023/05/17 00:41:21;;;;;;;16.27;15.77;;;20.40;62.80;;;;;;5039238;28;20527;-59
2023/05/17 00:43:48;;;;;;;15.93;15.40;;;20.40;62.80;;;;;;5051525;28;20479;-58
2023/05/17 00:46:16;;;;;;;14.83;14.33;;;20.30;62.70;;;;;;5051311;28;20575;-58
2023/05/17 00:48:43;;;;;;;16.47;15.87;;;20.40;62.80;;;;;;5051150;28;21042;-58
2023/05/17 00:51:11;;;;;;;15.93;15.43;;;20.40;62.80;;;;;;5044854;28;20492;-57
2023/05/17 00:53:38;;;;;;;16.30;15.70;;;20.30;62.70;;;;;;5031415;28;20480;-55
2023/05/17 00:56:06;;;;;;;17.53;17.03;;;20.30;62.70;;;;;;5031352;28;20531;-54
2023/05/17 00:58:33;;;;;;;16.87;16.23;;;20.30;62.80;;;;;;5030969;28;20504;-54
2023/05/17 01:01:01;;;;;;;16.80;16.30;;;20.30;62.80;;;;;;5049554;28;20531;-55
2023/05/17 01:03:29;;;;;;;17.37;16.77;;;20.30;62.80;;;;;;5051354;28;20480;-59
2023/05/17 01:05:56;;;;;;;17.40;16.60;;;20.30;62.90;;;;;;5051159;28;20520;-58
2023/05/17 01:08:23;;;;;;;17.80;17.00;;;20.30;63.00;;;;;;5050915;28;20826;-57
2023/05/17 01:10:56;;;;;;;16.97;16.37;;;20.30;63.00;;;;;;5034139;28;20500;-57
2023/05/17 01:13:31;;;;;;;16.33;15.80;;;20.30;63.00;;;;;;5031242;28;20481;-56
2023/05/17 01:16:05;;;;;;;16.67;16.07;;;20.30;63.10;;;;;;5031244;28;20856;-57
2023/05/17 01:18:41;;;;;;;16.20;15.70;;;20.30;63.20;;;;;;5030851;28;20469;-58
2023/05/17 01:21:37;;;;;;;17.10;16.50;;;20.30;63.30;;;;;;5049907;28;20490;-54
2023/05/17 01:24:17;;;;;;;16.00;15.50;;;20.30;63.30;;;;;;5051236;28;20445;-57
2023/05/17 01:26:49;;;;;;;15.77;15.27;;;20.30;63.30;;;;;;5050758;28;20579;-56
2023/05/17 01:29:19;;;;;;;16.70;16.00;;;20.20;63.20;;;;;;5047288;28;20876;-58
2023/05/17 01:31:48;;;;;;;16.37;15.87;;;20.20;63.30;;;;;;5033263;28;20477;-58
2023/05/17 01:34:24;;;;;;;15.70;15.20;;;20.20;63.30;;;;;;5034684;28;20477;-59
2023/05/17 01:36:51;;;;;;;16.30;15.80;;;20.20;63.40;;;;;;5034482;28;20852;-56
2023/05/17 01:39:18;;;;;;;15.90;15.40;;;20.20;63.40;;;;;;5037636;28;20479;-56
2023/05/17 01:41:51;;;;;;;16.00;15.50;;;20.20;63.40;;;;;;5054503;28;20459;-55
2023/05/17 01:44:25;;;;;;;16.67;16.13;;;20.20;63.40;;;;;;5054495;28;20524;-57
2023/05/17 01:46:57;;;;;;;17.73;17.13;;;20.20;63.40;;;;;;5053068;28;20521;-57
2023/05/17 01:49:29;;;;;;;16.30;15.80;;;20.20;63.50;;;;;;5034280;28;20481;-56
2023/05/17 01:52:00;;;;;;;16.33;15.83;;;20.20;63.40;;;;;;5034591;28;20868;-56
2023/05/17 01:54:31;;;;;;;16.70;16.20;;;20.10;63.40;;;;;;5034361;28;20866;-55
2023/05/17 01:57:00;;;;;;;16.70;16.20;;;20.10;63.40;;;;;;5035137;28;21028;-55
2023/05/17 01:59:29;;;;;;;16.90;16.40;;;20.20;63.60;;;;;;5054217;28;20448;-56
2023/05/17 02:02:04;;;;;;;16.00;15.50;;;20.10;63.50;;;;;;5054121;28;20484;-56
2023/05/17 02:04:32;;;;;;;16.50;15.93;;;20.10;63.60;;;;;;5054175;28;20483;-53
2023/05/17 02:06:59;;;;;;;16.80;16.30;;;20.10;63.70;;;;;;5038313;28;20512;-56
2023/05/17 02:09:26;;;;;;;16.30;15.80;;;20.10;63.60;;;;;;5034155;28;20528;-55
2023/05/17 02:11:53;;;;;;;15.70;15.20;;;20.10;63.60;;;;;;5034033;28;20945;-59
2023/05/17 02:14:21;;;;;;;15.20;14.80;;;20.10;63.70;;;;;;5034087;28;20472;-57
2023/05/17 02:16:48;;;;;;;15.70;15.20;;;20.10;63.60;;;;;;5046430;28;20524;-57
2023/05/17 02:19:15;;;;;;;16.33;15.83;;;20.10;63.70;;;;;;5053743;28;20456;-58
2023/05/17 02:21:42;;;;;;;16.30;15.80;;;20.10;63.60;;;;;;5053798;28;20877;-57
2023/05/17 02:24:09;;;;;;;16.33;15.83;;;20.10;63.60;;;;;;5053827;28;20873;-56
2023/05/17 02:26:36;;;;;;;16.80;16.20;;;20.10;63.70;;;;;;5041937;28;20919;-56
2023/05/17 02:29:03;;;;;;;16.80;16.30;;;20.10;63.70;;;;;;5033675;28;20548;-57
2023/05/17 02:31:31;;;;;;;17.30;16.70;;;20.10;63.80;;;;;;5033624;28;20517;-58
2023/05/17 02:33:58;;;;;;;16.93;16.37;;;20.00;63.70;;;;;;5033618;28;20524;-57
2023/05/17 02:36:25;;;;;;;18.67;18.07;;;20.10;63.90;;;;;;5042651;28;20891;-57
2023/05/17 02:38:51;;;;;;;16.40;15.90;;;20.10;63.90;;;;;;5053413;28;20496;-55
2023/05/17 02:41:18;;;;;;;18.00;17.40;;;20.10;63.90;;;;;;5053415;28;20870;-55
2023/05/17 02:43:45;;;;;;;17.27;16.53;;;20.10;63.90;;;;;;5053207;28;20880;-55
2023/05/17 02:46:12;;;;;;;17.10;16.60;;;20.10;64.00;;;;;;5045618;28;20563;-56
2023/05/17 02:48:40;;;;;;;16.07;15.57;;;20.10;64.10;;;;;;5033070;28;20523;-57
2023/05/17 02:51:07;;;;;;;16.00;15.60;;;20.10;64.10;;;;;;5033355;28;20532;-56
2023/05/17 02:53:34;;;;;;;17.97;17.37;;;20.00;64.10;;;;;;5033208;28;20487;-55
2023/05/17 02:56:01;;;;;;;15.63;15.13;;;20.00;64.10;;;;;;5038529;28;20487;-54
2023/05/17 02:58:28;;;;;;;17.37;16.83;;;20.00;64.10;;;;;;5079801;22;20522;-47
2023/05/17 03:00:54;;;;;;;17.67;16.97;;;20.00;64.10;;;;;;5072913;28;20482;-50
2023/05/17 03:03:21;;;;;;;16.57;16.10;;;20.00;64.10;;;;;;5073068;28;20486;-49
2023/05/17 03:05:50;;;;;;;16.70;16.20;;;20.00;64.20;;;;;;5072724;28;20566;-48
2023/05/17 03:08:16;;;;;;;16.60;16.10;;;20.00;64.30;;;;;;5072761;28;20499;-48
2023/05/17 03:10:43;;;;;;;15.60;15.10;;;20.00;64.20;;;;;;5072894;28;20544;-48
2023/05/17 03:13:10;;;;;;;16.70;16.20;;;20.00;64.30;;;;;;5073029;28;20479;-48
2023/05/17 03:15:37;;;;;;;16.37;15.83;;;20.00;64.40;;;;;;5072052;28;20817;-51
2023/05/17 03:18:04;;;;;;;16.90;16.40;;;20.00;64.40;;;;;;5072549;28;20889;-48
2023/05/17 03:20:31;;;;;;;17.23;16.73;;;20.00;64.40;;;;;;5072662;28;20475;-54
2023/05/17 03:22:59;;;;;;;18.47;17.83;;;20.00;64.40;;;;;;5072687;28;20479;-52
2023/05/17 03:25:26;;;;;;;17.23;16.73;;;20.00;64.40;;;;;;5058712;28;20531;-50
2023/05/17 03:27:53;;;;;;;16.50;16.00;;;20.00;64.40;;;;;;5052231;28;20562;-52
2023/05/17 03:30:20;;;;;;;17.40;16.90;;;20.00;64.40;;;;;;5052612;28;20534;-51
2023/05/17 03:32:47;;;;;;;19.37;18.77;;;20.00;64.50;;;;;;5057226;28;20494;-52
2023/05/17 03:35:13;;;;;;;18.17;17.53;;;20.00;64.50;;;;;;5072441;28;20530;-52
2023/05/17 03:37:40;;;;;;;18.60;18.00;;;20.00;64.50;;;;;;5071792;28;20494;-51
2023/05/17 03:40:09;;;;;;;16.70;16.20;;;20.00;64.50;;;;;;5072389;28;20530;-50
2023/05/17 03:42:37;;;;;;;17.30;16.80;;;20.00;64.50;;;;;;5068408;28;20440;-51
2023/05/17 03:45:04;;;;;;;16.60;16.10;;;20.00;64.50;;;;;;5052246;28;20932;-50
2023/05/17 03:47:31;;;;;;;17.03;16.43;;;20.00;64.50;;;;;;5051881;28;20566;-50
2023/05/17 03:49:58;;;;;;;17.00;16.50;;;20.00;64.50;;;;;;5052120;28;20535;-52
2023/05/17 03:52:25;;;;;;;16.87;16.27;;;20.00;64.50;;;;;;5053757;28;20479;-52
2023/05/17 03:54:52;;;;;;;17.53;16.93;;;20.00;64.50;;;;;;5071505;28;20960;-53
2023/05/17 03:57:21;;;;;;;18.80;18.20;;;20.00;64.50;;;;;;5071582;28;20502;-51
2023/05/17 03:59:48;;;;;;;18.60;18.07;;;19.90;64.30;;;;;;5072011;28;20859;-50
2023/05/17 04:02:15;;;;;;;18.30;17.80;;;19.90;64.30;;;;;;5071655;28;20886;-50
2023/05/17 04:04:48;;;;;;;19.10;18.50;;;19.90;64.40;;;;;;5051939;28;20443;-52
2023/05/17 04:07:15;;;;;;;18.30;17.70;;;19.90;65.20;;;;;;5051677;28;20583;-51
2023/05/17 04:09:42;;;;;;;19.00;18.30;;;19.90;64.50;;;;;;5051780;28;20852;-50
2023/05/17 04:12:09;;;;;;;18.13;17.63;;;19.90;64.60;;;;;;5052119;28;20526;-50
2023/05/17 04:14:38;;;;;;;19.20;18.60;;;19.90;64.50;;;;;;5051635;28;20452;-51
2023/05/17 04:17:05;;;;;;;18.43;17.83;;;19.90;64.50;;;;;;5051472;28;20444;-51
2023/05/17 04:19:32;;;;;;;17.90;17.10;;;19.90;64.70;;;;;;5055841;28;20450;-50
2023/05/17 04:21:59;;;;;;;19.50;18.40;;;19.90;64.50;;;;;;5071641;28;20486;-53
2023/05/17 04:24:25;;;;;;;20.47;19.20;;;19.90;65.50;;;;;;5071578;28;20475;-52
2023/05/17 04:26:52;;;;;;;22.37;20.90;;;20.00;67.60;;;;;;5071460;28;20849;-50
2023/05/17 04:29:20;;;;;;;20.93;19.67;;;20.00;70.30;;;;;;5068597;28;20523;-52
2023/05/17 04:31:48;;;;;;;23.00;21.33;;;20.00;71.80;;;;;;5051636;28;20778;-56
2023/05/17 04:34:15;;;;;;;23.47;21.60;;;20.00;73.90;;;;;;5051579;28;20488;-50
2023/05/17 04:36:42;;;;;;;26.37;24.00;;;20.10;80.80;;;;;;5051300;28;20444;-50
2023/05/17 04:39:09;;;;;;;26.47;23.93;;;20.00;89.30;;;;;;5051940;28;20981;-53
2023/05/17 04:41:36;;;;;;;25.47;23.03;;;20.00;85.60;;;;;;5053466;28;20890;-50
2023/05/17 04:44:03;;;;;;;24.87;22.83;;;20.00;86.10;;;;;;5051502;28;20947;-54
2023/05/17 04:46:30;;;;;;;22.00;20.60;;;20.00;84.30;;;;;;5051281;28;21061;-50
2023/05/17 04:48:59;;;;;;;25.60;23.97;;;20.00;84.20;;;;;;5051250;28;20470;-53
2023/05/17 04:51:26;;;;;;;22.90;21.33;;;20.00;84.70;;;;;;5051167;28;20472;-51
2023/05/17 04:53:53;;;;;;;22.47;20.83;;;20.00;83.60;;;;;;5051492;28;20444;-51
2023/05/17 04:56:21;;;;;;;24.13;21.90;;;20.00;82.60;;;;;;5051223;28;20448;-52
2023/05/17 04:58:48;;;;;;;22.60;21.17;;;20.00;81.80;;;;;;5051026;28;20538;-49
2023/05/17 05:01:15;;;;;;;22.33;20.60;;;20.00;81.40;;;;;;5051336;28;20483;-48
2023/05/17 05:03:42;;;;;;;21.77;20.20;;;20.00;80.90;;;;;;5051251;28;20890;-50
2023/05/17 05:06:10;;;;;;;21.40;19.90;;;20.00;80.70;;;;;;5052638;28;20813;-49
2023/05/17 05:08:37;;;;;;;21.57;20.07;;;20.00;80.20;;;;;;5054944;28;20472;-48
2023/05/17 05:11:04;;;;;;;24.17;22.27;;;20.00;79.80;;;;;;5055131;28;20475;-49
2023/05/17 05:13:32;;;;;;;22.03;20.70;;;20.00;79.20;;;;;;5055185;28;20482;-49
2023/05/17 05:15:59;;;;;;;20.43;19.43;;;20.00;78.80;;;;;;5055058;28;20448;-51
2023/05/17 05:18:26;;;;;;;22.57;21.20;;;20.00;78.50;;;;;;5054834;28;20879;-49
2023/05/17 05:20:52;;;;;;;23.20;21.90;;;20.00;78.10;;;;;;5055032;28;20483;-49
2023/05/17 05:23:21;;;;;;;22.07;20.70;;;20.00;77.80;;;;;;5054958;28;20527;-49
2023/05/17 05:25:48;;;;;;;21.17;20.27;;;20.00;77.40;;;;;;5055006;28;20527;-49
2023/05/17 05:28:14;;;;;;;22.73;21.40;;;20.00;76.90;;;;;;5054496;28;20571;-48
2023/05/17 05:30:41;;;;;;;22.10;20.80;;;20.00;77.00;;;;;;5054854;28;20515;-49
2023/05/17 05:33:08;;;;;;;20.53;19.53;;;20.00;76.60;;;;;;5054825;28;20685;-49
2023/05/17 05:35:35;;;;;;;21.60;20.50;;;19.90;76.30;;;;;;5054720;28;20527;-49
2023/05/17 05:38:02;;;;;;;22.23;21.23;;;19.90;76.20;;;;;;5054353;28;20579;-49
2023/05/17 05:40:31;;;;;;;21.73;20.33;;;20.00;76.00;;;;;;5054666;28;20479;-49
2023/05/17 05:42:57;;;;;;;21.33;20.20;;;19.90;75.70;;;;;;5054498;28;20953;-48
2023/05/17 05:45:24;;;;;;;21.50;20.60;;;19.90;75.40;;;;;;5054616;28;20525;-49
2023/05/17 05:47:51;;;;;;;22.13;21.03;;;19.90;75.30;;;;;;5054095;28;20512;-49
2023/05/17 05:50:18;;;;;;;22.00;21.00;;;19.90;75.20;;;;;;5054492;28;20526;-49
2023/05/17 05:52:45;;;;;;;23.23;21.93;;;19.90;74.90;;;;;;5054458;28;20482;-49
2023/05/17 05:55:12;;;;;;;22.40;20.90;;;19.90;74.90;;;;;;5054476;28;20476;-51
2023/05/17 05:57:40;;;;;;;22.27;21.20;;;19.90;74.80;;;;;;5053858;28;20499;-50
2023/05/17 06:00:10;;;;;;;22.73;21.70;;;19.90;74.50;;;;;;5054348;28;20871;-48
2023/05/17 06:02:37;;;;;;;21.30;20.40;;;19.90;74.30;;;;;;5054326;28;20455;-49
2023/05/17 06:05:05;;;;;;;22.97;21.80;;;19.90;74.10;;;;;;5054362;28;20539;-49
2023/05/17 06:07:32;;;;;;;23.50;22.60;;;19.90;74.80;;;;;;5053883;28;21024;-49
2023/05/17 06:09:59;;;;;;;23.67;22.67;;;19.90;74.00;;;;;;5054101;28;20495;-49
2023/05/17 06:12:26;;;;;;;23.67;22.57;;;19.90;73.80;;;;;;5054106;28;20471;-49
2023/05/17 06:14:54;;;;;;;22.10;21.40;;;19.90;73.70;;;;;;5054069;28;20487;-51
2023/05/17 06:17:21;;;;;;;23.43;22.43;;;19.90;73.70;;;;;;5053173;28;20469;-48
2023/05/17 06:19:49;;;;;;;23.27;22.40;;;19.90;73.50;;;;;;5053876;28;20479;-49
2023/05/17 06:22:15;;;;;;;24.03;23.10;;;19.90;73.30;;;;;;5053898;28;20452;-49
2023/05/17 06:24:42;;;;;;;23.23;22.33;;;19.90;73.30;;;;;;5053868;28;20547;-52
2023/05/17 06:27:09;;;;;;;23.80;22.80;;;19.90;73.20;;;;;;5053388;28;20515;-51
2023/05/17 06:29:36;;;;;;;24.50;23.40;;;19.90;73.00;;;;;;5053648;28;20491;-53
2023/05/17 06:32:05;;;;;;;21.70;20.83;;;19.90;73.00;;;;;;5053682;28;20452;-48
2023/05/17 06:34:32;;;;;;;22.70;21.80;;;19.90;72.90;;;;;;5053682;28;20873;-50
2023/05/17 06:36:59;;;;;;;23.00;21.87;;;19.80;72.70;;;;;;5053395;28;20502;-48
2023/05/17 06:39:26;;;;;;;23.70;22.60;;;19.90;72.70;;;;;;5053471;28;20482;-53
2023/05/17 06:41:53;;;;;;;23.73;22.80;;;19.90;72.60;;;;;;5053450;28;20530;-48
2023/05/17 06:44:19;;;;;;;23.67;22.33;;;19.90;72.60;;;;;;5053440;28;20483;-48
2023/05/17 06:46:46;;;;;;;23.97;22.80;;;19.90;72.60;;;;;;5053194;28;20480;-52
2023/05/17 06:49:14;;;;;;;22.10;20.87;;;19.90;72.50;;;;;;5053252;28;20468;-48
2023/05/17 06:51:41;;;;;;;21.97;21.17;;;19.90;72.50;;;;;;5053310;28;20535;-56
2023/05/17 06:54:08;;;;;;;22.83;22.03;;;19.90;73.20;;;;;;5053357;28;20472;-50
2023/05/17 06:56:35;;;;;;;23.27;22.33;;;19.80;72.30;;;;;;5053047;28;20487;-53
2023/05/17 06:59:02;;;;;;;24.87;23.77;;;19.80;72.20;;;;;;5052978;28;20496;-53
2023/05/17 07:01:29;;;;;;;24.83;23.63;;;19.90;72.30;;;;;;5053103;28;20491;-54
2023/05/17 07:03:56;;;;;;;24.70;23.40;;;19.90;72.20;;;;;;5053038;28;20531;-50
2023/05/17 07:06:24;;;;;;;24.77;23.80;;;19.90;72.20;;;;;;5053049;28;20445;-50
2023/05/17 07:08:51;;;;;;;23.13;22.23;;;19.80;72.00;;;;;;5052775;28;20565;-50
2023/05/17 07:11:18;;;;;;;23.00;22.20;;;19.90;71.90;;;;;;5052907;28;20478;-52
2023/05/17 07:13:45;;;;;;;24.47;23.57;;;19.90;71.90;;;;;;5053005;28;20539;-50
2023/05/17 07:16:12;;;;;;;23.27;22.47;;;19.90;71.80;;;;;;5052915;28;20544;-49
2023/05/17 07:18:39;;;;;;;24.30;23.20;;;19.90;71.70;;;;;;5052504;28;20488;-49
2023/05/17 07:21:05;;;;;;;24.60;23.77;;;19.90;71.70;;;;;;5052886;28;20864;-48
2023/05/17 07:23:34;;;;;;;23.47;22.57;;;19.90;71.60;;;;;;5052748;28;20484;-47
2023/05/17 07:26:01;;;;;;;23.10;22.27;;;19.90;71.50;;;;;;5052519;28;20448;-48
2023/05/17 07:28:28;;;;;;;25.07;24.00;;;19.90;71.50;;;;;;5051521;28;20575;-48
2023/05/17 07:30:55;;;;;;;23.57;22.70;;;19.90;71.40;;;;;;5052531;28;20436;-47
2023/05/17 07:33:22;;;;;;;24.00;23.00;;;19.80;71.20;;;;;;5052556;28;20539;-50
2023/05/17 07:35:49;;;;;;;25.63;24.53;;;19.90;71.40;;;;;;5052539;28;20480;-48
2023/05/17 07:38:15;;;;;;;27.40;26.30;;;19.90;71.30;;;;;;5052216;28;20503;-49
2023/05/17 07:40:44;;;;;;;24.33;23.53;;;19.90;71.30;;;;;;5052400;28;20539;-47
2023/05/17 07:43:11;;;;;;;24.97;23.97;;;19.90;71.30;;;;;;5052373;28;20873;-48
2023/05/17 07:45:37;;;;;;;24.30;23.40;;;19.90;71.20;;;;;;5052195;28;20527;-47
2023/05/17 07:48:04;;;;;;;24.60;23.70;;;19.90;71.20;;;;;;5051880;28;20515;-47
2023/05/17 07:50:32;;;;;;;25.00;24.10;;;19.90;71.20;;;;;;5052247;28;20875;-48
2023/05/17 07:52:58;;;;;;;24.40;23.57;;;19.80;71.00;;;;;;5052079;28;20451;-48
2023/05/17 07:55:25;;;;;;;25.13;24.23;;;19.90;71.10;;;;;;5052149;28;20491;-50
2023/05/17 07:57:53;;;;;;;24.50;23.60;;;19.90;71.10;;;;;;5051706;28;20468;-53
2023/05/17 08:00:21;;;;;;;24.03;23.23;;;19.90;71.20;;;;;;5051933;28;20472;-50
2023/05/17 08:02:48;;;;;;;24.37;23.23;;;19.80;71.00;;;;;;5052064;28;20476;-51
2023/05/17 08:05:15;;;;;;;24.40;23.47;;;19.80;71.10;;;;;;5051954;28;21010;-48
2023/05/17 08:07:42;;;;;;;25.23;24.33;;;19.80;71.00;;;;;;5051552;28;20920;-49
2023/05/17 08:10:10;;;;;;;25.20;24.30;;;19.90;71.10;;;;;;5051863;28;20579;-50
2023/05/17 08:12:36;;;;;;;24.53;23.63;;;19.80;71.00;;;;;;5051753;28;20548;-51
2023/05/17 08:15:06;;;;;;;23.53;22.60;;;19.90;71.00;;;;;;5051686;28;20536;-49
2023/05/17 08:17:33;;;;;;;25.33;24.30;;;19.90;71.10;;;;;;5051455;28;20464;-51
2023/05/17 08:20:00;;;;;;;23.67;22.67;;;19.90;71.00;;;;;;5051644;28;20576;-50
2023/05/17 08:22:26;;;;;;;25.70;24.80;;;19.80;70.90;;;;;;5051658;28;21019;-50
2023/05/17 08:24:53;;;;;;;24.63;23.83;;;19.80;70.80;;;;;;5051641;28;20499;-49
2023/05/17 08:27:20;;;;;;;25.67;24.77;;;19.90;70.90;;;;;;5051303;28;20496;-50
2023/05/17 08:29:47;;;;;;;22.83;21.97;;;19.90;70.80;;;;;;5051591;28;20495;-51
2023/05/17 08:32:15;;;;;;;24.60;23.70;;;19.90;70.80;;;;;;5051531;28;20483;-51
2023/05/17 08:34:42;;;;;;;25.53;24.73;;;19.90;70.70;;;;;;5051557;28;20881;-53
2023/05/17 08:37:09;;;;;;;25.17;24.17;;;19.90;70.70;;;;;;5051381;28;20476;-50
2023/05/17 08:39:36;;;;;;;25.17;24.37;;;19.90;70.50;;;;;;5051312;28;20447;-50
2023/05/17 08:42:07;;;;;;;23.20;22.40;;;19.80;70.40;;;;;;5051385;28;20543;-54
2023/05/17 08:44:35;;;;;;;25.00;24.20;;;19.90;70.50;;;;;;5051407;28;20490;-49
2023/05/17 08:47:03;;;;;;;24.77;23.87;;;19.90;70.50;;;;;;5051162;28;20819;-48
2023/05/17 08:49:33;;;;;;;24.30;23.47;;;19.80;70.30;;;;;;5051270;28;20579;-49
2023/05/17 08:52:02;;;;;;;24.47;23.67;;;19.80;70.20;;;;;;5051288;28;20868;-48
2023/05/17 08:54:29;;;;;;;25.50;24.60;;;19.90;70.20;;;;;;5051335;28;20448;-47
2023/05/17 08:57:00;;;;;;;23.40;22.60;;;19.90;70.10;;;;;;5051194;28;20539;-47
2023/05/17 08:59:32;;;;;;;24.47;23.67;;;19.90;70.00;;;;;;5051955;28;20795;-50
2023/05/17 09:02:00;;;;;;;23.50;22.70;;;19.80;70.00;;;;;;5051240;28;20436;-52
2023/05/17 09:04:28;;;;;;;24.07;23.27;;;19.80;69.90;;;;;;5051230;28;20458;-52
2023/05/17 09:06:57;;;;;;;24.30;23.50;;;19.90;69.90;;;;;;5050987;28;20531;-51
2023/05/17 09:09:25;;;;;;;23.60;22.90;;;19.90;69.90;;;;;;5050973;28;20480;-51
2023/05/17 09:11:52;;;;;;;27.33;26.33;;;19.80;69.70;;;;;;5051217;28;20459;-48
2023/05/17 09:14:19;;;;;;;27.50;26.50;;;19.90;69.80;;;;;;5051094;28;20471;-48
2023/05/17 09:16:46;;;;;;;26.23;25.33;;;19.80;69.70;;;;;;5051016;28;20448;-47
2023/05/17 09:19:16;;;;;;;27.10;26.30;;;19.90;69.70;;;;;;5050861;28;20495;-48
2023/05/17 09:21:46;;;;;;;25.20;24.40;;;19.90;69.70;;;;;;5051102;28;21016;-47
2023/05/17 09:24:15;;;;;;;23.20;22.40;;;19.90;69.60;;;;;;5051147;28;20445;-48
2023/05/17 09:26:44;;;;;;;22.67;21.87;;;19.80;69.50;;;;;;5050858;28;21021;-47
2023/05/17 09:29:12;;;;;;;23.27;22.27;;;19.90;69.50;;;;;;5050856;28;20575;-51
2023/05/17 09:31:39;;;;;;;24.80;24.00;;;19.90;69.50;;;;;;5051016;28;20483;-52
2023/05/17 09:34:06;;;;;;;22.77;21.97;;;19.90;69.50;;;;;;5050996;28;20539;-48
2023/05/17 09:36:35;;;;;;;23.93;23.13;;;19.80;69.30;;;;;;5050762;28;20451;-47
2023/05/17 09:39:04;;;;;;;25.23;24.33;;;19.90;69.60;;;;;;5050780;28;20567;-49
2023/05/17 09:41:40;;;;;;;23.47;22.63;;;19.80;69.40;;;;;;5050895;28;20444;-51
2023/05/17 09:44:09;;;;;;;24.80;24.00;;;19.90;69.40;;;;;;5050825;28;20475;-48
2023/05/17 09:46:38;;;;;;;24.73;23.83;;;19.80;69.30;;;;;;5050673;28;20823;-47
2023/05/17 09:49:06;;;;;;;24.37;23.47;;;19.90;69.50;;;;;;5050550;28;20495;-49
2023/05/17 09:51:33;;;;;;;24.00;23.20;;;19.80;69.30;;;;;;5051019;28;20444;-52
2023/05/17 09:54:01;;;;;;;24.37;23.57;;;19.90;69.30;;;;;;5054417;28;20440;-50
2023/05/17 09:56:32;;;;;;;24.13;23.40;;;19.80;69.10;;;;;;5054097;28;20866;-53
2023/05/17 09:59:01;;;;;;;23.30;22.50;;;19.90;69.20;;;;;;5054026;28;20514;-51
2023/05/17 10:01:29;;;;;;;24.47;23.57;;;19.80;68.90;;;;;;5054379;28;20459;-49
2023/05/17 10:04:00;;;;;;;24.20;23.40;;;19.90;69.00;;;;;;5054116;28;20480;-50
2023/05/17 10:06:29;;;;;;;23.73;22.83;;;19.90;69.00;;;;;;5053955;28;20444;-51
2023/05/17 10:08:57;;;;;;;22.57;21.87;;;19.90;69.00;;;;;;5053842;28;20579;-49
2023/05/17 10:11:32;;;;;;;21.87;21.17;;;19.90;69.00;;;;;;5053933;28;20495;-50
2023/05/17 10:14:08;;;;;;;23.10;22.40;;;19.80;68.90;;;;;;5053964;28;20487;-50
2023/05/17 10:16:35;;;;;;;23.80;23.10;;;19.90;68.90;;;;;;5053813;28;20444;-49
2023/05/17 10:19:03;;;;;;;22.80;22.00;;;19.80;68.80;;;;;;5053749;28;20562;-51
2023/05/17 10:21:31;;;;;;;22.73;21.97;;;19.90;68.90;;;;;;5053854;28;20444;-51
2023/05/17 10:24:01;;;;;;;24.63;23.93;;;19.90;68.90;;;;;;5053816;28;20896;-51
2023/05/17 10:26:28;;;;;;;24.30;23.50;;;19.90;68.80;;;;;;5053783;28;20483;-51
2023/05/17 10:29:00;;;;;;;23.87;22.97;;;19.80;68.60;;;;;;5053518;28;21031;-48
2023/05/17 10:31:30;;;;;;;24.23;23.53;;;19.90;68.80;;;;;;5053610;28;20455;-48
2023/05/17 10:33:58;;;;;;;23.60;22.80;;;19.90;68.70;;;;;;5053750;28;20955;-50
2023/05/17 10:36:26;;;;;;;23.80;23.10;;;19.80;68.60;;;;;;5053387;28;20479;-50
2023/05/17 10:38:53;;;;;;;21.77;21.17;;;19.80;68.60;;;;;;5053384;28;20992;-53
2023/05/17 10:41:23;;;;;;;22.70;22.00;;;19.90;68.70;;;;;;5053475;28;20475;-50
2023/05/17 10:43:51;;;;;;;21.93;21.23;;;19.90;68.60;;;;;;5053500;28;20452;-53
2023/05/17 10:46:20;;;;;;;23.00;22.23;;;19.90;68.50;;;;;;5053352;28;20499;-51
2023/05/17 10:48:51;;;;;;;22.30;21.60;;;19.90;68.50;;;;;;5053125;28;20492;-50
2023/05/17 10:51:23;;;;;;;23.13;22.33;;;19.90;68.50;;;;;;5053264;28;20448;-48
2023/05/17 10:54:09;;;;;;;23.00;22.20;;;19.90;68.50;;;;;;5053315;28;20449;-51
2023/05/17 10:56:40;;;;;;;23.30;22.40;;;19.90;68.40;;;;;;5053051;28;20444;-53
2023/05/17 10:59:20;;;;;;;21.77;21.00;;;19.90;68.40;;;;;;5052944;28;20468;-53
2023/05/17 11:01:56;;;;;;;20.90;20.20;;;19.90;68.30;;;;;;5053133;28;20455;-52
2023/05/17 11:04:26;;;;;;;22.20;21.50;;;19.90;68.30;;;;;;5053111;28;20483;-56
2023/05/17 11:06:54;;;;;;;22.50;21.80;;;19.90;68.30;;;;;;5052800;28;20476;-50
2023/05/17 11:09:23;;;;;;;23.37;22.33;;;19.90;68.30;;;;;;5052821;28;20541;-50
2023/05/17 11:12:07;;;;;;;23.50;22.70;;;19.90;68.20;;;;;;5052931;28;20450;-52
2023/05/17 11:14:58;;;;;;;26.50;25.70;;;19.90;68.10;;;;;;5052946;28;20483;-50
2023/05/17 11:17:27;;;;;;;22.63;21.93;;;19.90;68.10;;;;;;5037487;28;20500;-49
2023/05/17 11:20:09;;;;;;;23.27;22.50;;;19.90;68.10;;;;;;5052819;28;20857;-53
2023/05/17 11:22:38;;;;;;;23.23;22.53;;;19.90;68.10;;;;;;5052645;28;20464;-52
2023/05/17 11:25:10;;;;;;;22.20;21.40;;;19.90;67.90;;;;;;5052694;28;20945;-47
2023/05/17 11:27:44;;;;;;;23.53;22.80;;;19.90;67.90;;;;;;5052237;28;20495;-48
2023/05/17 11:30:21;;;;;;;22.83;22.13;;;19.90;68.00;;;;;;5052599;28;20480;-47
2023/05/17 11:32:50;;;;;;;24.60;23.80;;;19.90;68.00;;;;;;5052535;28;20498;-47
2023/05/17 11:35:19;;;;;;;24.50;23.80;;;19.90;67.90;;;;;;5052426;28;20479;-47
2023/05/17 11:37:48;;;;;;;24.50;23.80;;;19.90;67.80;;;;;;5052143;28;20500;-49
2023/05/17 11:40:26;;;;;;;22.50;21.80;;;19.90;67.80;;;;;;5052417;28;20942;-47
2023/05/17 11:43:14;;;;;;;23.63;22.93;;;19.90;67.90;;;;;;5052570;28;20922;-48
2023/05/17 11:45:43;;;;;;;22.90;22.10;;;19.90;67.80;;;;;;5052354;28;20813;-48
2023/05/17 11:48:11;;;;;;;24.03;23.33;;;19.90;67.70;;;;;;5051944;28;20462;-47
2023/05/17 11:50:39;;;;;;;22.80;22.20;;;19.90;67.70;;;;;;5052066;28;20487;-48
2023/05/17 11:53:07;;;;;;;23.40;22.70;;;19.90;67.70;;;;;;5052486;28;20535;-53
2023/05/17 11:55:37;;;;;;;22.87;22.07;;;20.00;67.70;;;;;;5052162;28;20479;-47
2023/05/17 11:58:06;;;;;;;24.20;23.40;;;19.90;67.60;;;;;;5051692;28;21024;-47
2023/05/17 12:00:33;;;;;;;24.57;23.77;;;20.00;67.60;;;;;;5052181;28;20802;-48
2023/05/17 12:03:15;;;;;;;23.70;22.90;;;19.90;67.50;;;;;;5051986;28;20450;-47
2023/05/17 12:05:44;;;;;;;24.30;23.50;;;20.00;67.60;;;;;;5052016;28;21014;-50
2023/05/17 12:08:11;;;;;;;23.87;23.17;;;20.00;67.50;;;;;;5051680;28;20475;-48
2023/05/17 12:10:45;;;;;;;24.30;23.60;;;20.00;67.50;;;;;;5051757;28;20512;-48
2023/05/17 12:13:12;;;;;;;25.43;24.63;;;20.00;67.40;;;;;;5051944;28;20440;-49
2023/05/17 12:15:40;;;;;;;23.67;22.97;;;20.00;67.30;;;;;;5051442;28;20487;-52
2023/05/17 12:18:06;;;;;;;26.70;25.90;;;20.00;67.30;;;;;;5051467;28;20829;-51
2023/05/17 12:20:34;;;;;;;23.10;22.40;;;20.00;67.20;;;;;;5051755;28;20471;-55
2023/05/17 12:23:02;;;;;;;24.07;23.37;;;20.00;67.10;;;;;;5051754;28;20980;-53
2023/05/17 12:25:29;;;;;;;24.03;23.23;;;20.00;67.10;;;;;;5051677;28;20478;-51
2023/05/17 12:28:15;;;;;;;23.93;23.20;;;20.00;67.00;;;;;;5051401;28;20586;-50
2023/05/17 12:30:42;;;;;;;23.53;22.83;;;20.00;66.90;;;;;;5051639;28;20518;-51
2023/05/17 12:33:09;;;;;;;23.80;23.10;;;20.00;66.90;;;;;;5051486;28;20539;-51
2023/05/17 12:35:36;;;;;;;23.63;22.90;;;20.00;66.90;;;;;;5051574;28;20479;-54